Time;durP1;ratioP1;P1;durP2;ratioP2;P2;SDS_P1;SDS_P2;PMS_P1;PMS_P2;Temp;Humidity;BMP_temperature;BMP_pressure;BME280_temperature;BME280_humidity;BME280_pressure;Samples;Min_cycle;Max_cycle;Signal;HPM_P1;HPM_P2
2022/06/04 03:02:21;;;;;;;3.95;1.52;;;16.30;99.90;;;;;;5377089;23;88614;-77
2022/06/04 03:04:50;;;;;;;3.42;1.30;;;16.20;99.90;;;;;;4896598;28;88080;-77
2022/06/04 03:07:19;;;;;;;3.45;1.80;;;16.20;99.90;;;;;;4889528;28;87782;-78
2022/06/04 03:09:46;;;;;;;4.93;1.42;;;16.10;99.90;;;;;;4888955;28;86265;-78
2022/06/04 03:12:12;;;;;;;4.80;1.42;;;16.10;99.90;;;;;;4901045;28;87872;-78
2022/06/04 03:14:38;;;;;;;8.60;2.22;;;16.10;99.90;;;;;;4900382;28;87150;-78
2022/06/04 03:17:07;;;;;;;4.40;1.50;;;16.10;99.90;;;;;;4900397;28;86922;-76
2022/06/04 03:19:33;;;;;;;3.55;1.50;;;16.20;99.90;;;;;;4899362;28;87147;-76
2022/06/04 03:22:00;;;;;;;4.03;1.13;;;16.30;99.90;;;;;;4899598;28;87068;-77
2022/06/04 03:24:26;;;;;;;4.18;1.75;;;16.30;99.90;;;;;;4900381;28;87469;-79
2022/06/04 03:26:53;;;;;;;3.78;1.60;;;16.30;99.90;;;;;;4902279;28;86749;-79
2022/06/04 03:29:19;;;;;;;4.00;1.17;;;16.30;99.90;;;;;;4902975;28;87219;-79
2022/06/04 03:31:44;;;;;;;6.57;1.83;;;16.20;99.90;;;;;;4900226;28;88264;-78
2022/06/04 03:34:10;;;;;;;5.85;1.23;;;16.20;99.90;;;;;;4901111;28;87554;-78
2022/06/04 03:36:37;;;;;;;3.53;1.30;;;16.30;99.90;;;;;;4901937;28;86982;-78
2022/06/04 03:39:04;;;;;;;3.30;1.50;;;16.30;99.90;;;;;;4899854;28;87046;-78
2022/06/04 03:41:30;;;;;;;3.00;1.65;;;16.30;99.90;;;;;;4900535;28;87339;-78
2022/06/04 03:43:55;;;;;;;4.22;1.38;;;16.30;99.90;;;;;;4882525;28;90400;-75
2022/06/04 03:46:24;;;;;;;3.63;1.42;;;16.30;99.90;;;;;;4899030;28;86934;-75
2022/06/04 03:48:51;;;;;;;5.78;1.83;;;16.30;99.90;;;;;;4898905;28;86530;-76
2022/06/04 03:51:17;;;;;;;5.43;1.98;;;16.30;99.90;;;;;;4897891;28;87482;-76
2022/06/04 03:53:42;;;;;;;4.82;1.67;;;16.40;99.90;;;;;;4898304;28;87043;-76
2022/06/04 03:56:08;;;;;;;5.07;2.25;;;16.50;99.90;;;;;;4898041;28;87952;-76
2022/06/04 03:58:34;;;;;;;4.65;1.60;;;16.80;99.90;;;;;;4881059;28;86965;-75
2022/06/04 04:01:00;;;;;;;4.18;1.75;;;16.90;99.90;;;;;;4897950;28;88265;-75
2022/06/04 04:03:26;;;;;;;5.45;1.95;;;16.90;99.90;;;;;;4878851;28;87452;-78
2022/06/04 04:05:54;;;;;;;4.88;1.80;;;16.90;99.90;;;;;;4880505;28;87033;-77
2022/06/04 04:08:23;;;;;;;4.43;2.22;;;17.00;99.90;;;;;;4879392;28;87276;-77
2022/06/04 04:10:49;;;;;;;8.70;2.97;;;17.10;99.90;;;;;;4877725;28;92309;-77
2022/06/04 04:13:17;;;;;;;7.55;3.97;;;17.10;99.90;;;;;;4881148;28;87554;-77
2022/06/04 04:15:43;;;;;;;6.53;3.28;;;17.10;99.90;;;;;;4880132;28;87192;-77
2022/06/04 04:18:10;;;;;;;8.65;2.88;;;17.20;99.90;;;;;;4892907;28;87225;-77
2022/06/04 04:20:38;;;;;;;10.38;3.53;;;17.20;99.90;;;;;;4880437;28;89122;-77
2022/06/04 04:23:06;;;;;;;8.18;3.20;;;17.30;99.90;;;;;;4879958;28;87956;-77
2022/06/04 04:25:34;;;;;;;6.57;2.97;;;17.60;99.90;;;;;;4882911;28;87436;-78
2022/06/04 04:28:01;;;;;;;6.53;2.72;;;17.80;99.90;;;;;;4884407;28;87420;-77
2022/06/04 04:30:29;;;;;;;8.10;3.50;;;18.50;99.90;;;;;;4878340;28;86922;-77
2022/06/04 04:32:55;;;;;;;8.13;3.92;;;18.80;99.90;;;;;;4879949;28;87906;-77
2022/06/04 04:35:24;;;;;;;5.43;3.08;;;18.80;99.90;;;;;;4877165;28;87360;-78
2022/06/04 04:37:51;;;;;;;9.45;3.55;;;18.80;99.90;;;;;;4879824;28;86266;-80
2022/06/04 04:40:19;;;;;;;5.50;3.50;;;18.90;99.90;;;;;;4883010;28;87179;-76
2022/06/04 04:42:47;;;;;;;7.32;4.13;;;18.90;99.90;;;;;;4879851;28;86943;-76
2022/06/04 04:45:15;;;;;;;9.13;4.30;;;19.00;99.90;;;;;;4876954;28;87897;-77
2022/06/04 04:47:43;;;;;;;10.90;4.20;;;19.10;99.90;;;;;;4882813;28;87174;-76
2022/06/04 04:50:22;;;;;;;7.57;4.20;;;19.10;99.90;;;;;;4867205;28;87414;-77
2022/06/04 04:52:49;;;;;;;10.13;4.50;;;19.20;99.90;;;;;;4873207;28;86959;-78
2022/06/04 04:55:15;;;;;;;9.00;5.10;;;19.10;99.90;;;;;;4880418;28;87169;-78
2022/06/04 04:57:41;;;;;;;9.50;5.70;;;18.90;99.90;;;;;;4877135;28;87888;-78
2022/06/04 05:00:08;;;;;;;12.60;6.32;;;18.70;99.90;;;;;;4875645;28;89665;-78
2022/06/04 05:02:34;;;;;;;10.13;5.88;;;18.60;99.90;;;;;;4877974;28;89007;-78
2022/06/04 05:05:00;;;;;;;12.95;6.20;;;18.50;99.90;;;;;;4883644;28;87110;-78
2022/06/04 05:07:26;;;;;;;10.35;6.20;;;18.40;99.90;;;;;;4885153;28;86915;-78
2022/06/04 05:09:51;;;;;;;12.40;6.30;;;18.30;99.90;;;;;;4883959;28;88639;-78
2022/06/04 05:12:17;;;;;;;10.10;6.38;;;18.50;99.90;;;;;;4879439;28;87652;-78
2022/06/04 05:14:43;;;;;;;10.43;5.35;;;18.90;99.90;;;;;;4884389;28;86885;-78
2022/06/04 05:17:08;;;;;;;11.35;5.55;;;19.20;99.90;;;;;;4885087;28;87139;-78
2022/06/04 05:19:35;;;;;;;9.27;5.57;;;19.60;99.90;;;;;;4883843;28;88467;-78
2022/06/04 05:22:01;;;;;;;12.15;5.88;;;19.90;99.90;;;;;;4875455;28;87400;-78
2022/06/04 05:24:35;;;;;;;9.55;4.43;;;20.20;99.90;;;;;;4884192;28;86658;-78
2022/06/04 05:27:02;;;;;;;8.63;4.85;;;20.30;99.90;;;;;;4876370;28;86278;-78
2022/06/04 05:29:29;;;;;;;8.90;4.57;;;20.40;99.90;;;;;;4880667;28;88390;-78
2022/06/04 05:31:57;;;;;;;9.50;4.75;;;20.50;99.90;;;;;;4880247;28;87440;-75
2022/06/04 05:34:23;;;;;;;8.25;4.53;;;20.30;99.90;;;;;;4887697;28;88092;-78
2022/06/04 05:36:50;;;;;;;8.68;4.20;;;20.10;99.90;;;;;;4885005;28;87110;-79
2022/06/04 05:39:16;;;;;;;9.10;4.80;;;20.00;99.90;;;;;;4885870;28;91494;-78
2022/06/04 05:41:42;;;;;;;7.47;4.47;;;19.70;99.90;;;;;;4884871;28;86723;-78
2022/06/04 05:44:09;;;;;;;5.72;3.47;;;19.30;99.90;;;;;;4885552;28;87215;-78
2022/06/04 05:46:34;;;;;;;5.90;2.83;;;19.00;99.90;;;;;;4882176;28;87771;-78
2022/06/04 05:49:01;;;;;;;5.72;2.28;;;18.90;99.90;;;;;;4890938;28;87486;-77
2022/06/04 05:51:29;;;;;;;6.95;2.30;;;18.90;99.90;;;;;;4890737;28;87081;-79
2022/06/04 05:53:55;;;;;;;4.20;1.88;;;18.90;99.90;;;;;;4887208;28;86976;-76
2022/06/04 05:56:29;;;;;;;5.10;2.05;;;19.00;99.90;;;;;;4887307;28;87091;-77
2022/06/04 05:59:00;;;;;;;4.53;1.77;;;19.20;99.90;;;;;;4884713;28;88592;-78
2022/06/04 06:01:28;;;;;;;3.40;1.40;;;19.30;99.90;;;;;;4882819;28;88962;-78
2022/06/04 06:03:54;;;;;;;4.47;0.95;;;19.50;99.90;;;;;;4884009;28;87041;-78
2022/06/04 06:06:23;;;;;;;3.83;1.27;;;19.50;99.90;;;;;;4879161;28;87025;-79
2022/06/04 06:08:49;;;;;;;2.85;0.60;;;19.20;99.90;;;;;;4882161;28;87721;-79
2022/06/04 06:11:16;;;;;;;4.80;0.80;;;19.10;99.90;;;;;;4880272;28;87988;-78
2022/06/04 06:13:43;;;;;;;3.75;0.50;;;18.80;99.90;;;;;;4883180;28;87558;-79
2022/06/04 06:16:14;;;;;;;2.92;0.52;;;18.70;99.90;;;;;;4882368;28;86327;-80
2022/06/04 06:18:41;;;;;;;2.45;0.50;;;18.60;99.90;;;;;;4883624;28;88122;-79
2022/06/04 06:21:13;;;;;;;5.55;0.70;;;18.70;99.90;;;;;;4881838;28;87130;-78
2022/06/04 06:23:39;;;;;;;3.53;0.50;;;18.80;99.90;;;;;;4873116;28;88062;-76
2022/06/04 06:26:08;;;;;;;2.80;0.82;;;18.60;99.90;;;;;;4884196;28;86869;-79
2022/06/04 06:28:35;;;;;;;3.15;0.95;;;18.60;99.90;;;;;;4884950;28;87354;-79
2022/06/04 06:31:04;;;;;;;3.00;0.90;;;18.80;99.90;;;;;;4882495;28;87927;-76
2022/06/04 06:33:30;;;;;;;4.97;1.20;;;19.50;99.90;;;;;;4884559;28;86997;-79
2022/06/04 06:36:08;;;;;;;4.15;1.00;;;20.10;99.90;;;;;;4885644;28;87147;-78
2022/06/04 06:38:34;;;;;;;7.22;1.42;;;20.30;99.90;;;;;;4886411;28;87345;-78
2022/06/04 06:41:01;;;;;;;4.25;1.17;;;20.20;99.90;;;;;;4883627;28;86605;-78
2022/06/04 06:43:47;;;;;;;7.80;1.30;;;19.90;99.90;;;;;;4884220;28;86966;-80
2022/06/04 06:46:25;;;;;;;5.65;1.63;;;19.80;99.90;;;;;;4880801;28;87389;-77
2022/06/04 06:48:55;;;;;;;3.40;1.50;;;19.90;99.90;;;;;;4877215;28;88019;-81
2022/06/04 06:51:24;;;;;;;3.67;1.40;;;19.70;99.90;;;;;;4883911;28;88443;-79
2022/06/04 06:53:50;;;;;;;3.58;1.15;;;20.10;99.90;;;;;;4879294;28;87587;-80
2022/06/04 06:56:24;;;;;;;3.78;1.58;;;20.80;99.90;;;;;;4878531;28;87145;-77
2022/06/04 06:58:51;;;;;;;5.22;1.27;;;22.60;99.00;;;;;;4876418;28;87534;-79
2022/06/04 07:01:17;;;;;;;3.53;1.20;;;26.60;88.40;;;;;;4874612;28;87627;-78
2022/06/04 07:03:43;;;;;;;3.42;1.42;;;30.10;66.60;;;;;;4880921;28;87138;-80
2022/06/04 07:06:11;;;;;;;2.90;1.17;;;30.60;59.60;;;;;;4877580;28;86194;-79
2022/06/04 07:08:39;;;;;;;6.90;2.17;;;30.60;61.50;;;;;;4887576;28;87381;-81
2022/06/04 07:11:06;;;;;;;3.28;1.33;;;31.20;55.70;;;;;;4875867;28;86899;-78
2022/06/04 07:13:32;;;;;;;3.58;1.17;;;31.40;55.50;;;;;;4880746;28;87869;-78
2022/06/04 07:15:58;;;;;;;2.60;1.23;;;32.80;55.50;;;;;;4874254;28;88657;-75
2022/06/04 07:18:24;;;;;;;1.30;0.98;;;35.30;48.60;;;;;;4880210;28;87416;-76
2022/06/04 07:20:50;;;;;;;1.73;1.20;;;35.10;47.60;;;;;;4887301;28;88254;-76
2022/06/04 07:23:18;;;;;;;2.42;0.90;;;34.30;47.30;;;;;;4878255;28;87294;-77
2022/06/04 07:25:45;;;;;;;1.83;1.10;;;33.40;48.20;;;;;;4881527;28;87349;-76
2022/06/04 07:28:12;;;;;;;2.40;1.38;;;33.90;47.70;;;;;;4872681;28;87553;-76
2022/06/04 07:30:39;;;;;;;1.60;0.95;;;34.70;48.10;;;;;;4870450;28;87028;-75
2022/06/04 07:33:04;;;;;;;3.22;0.98;;;37.50;43.70;;;;;;4879570;28;87588;-79
2022/06/04 07:35:30;;;;;;;2.83;1.55;;;37.20;42.40;;;;;;4879495;28;87454;-78
2022/06/04 07:37:56;;;;;;;1.95;1.55;;;37.40;42.60;;;;;;4881049;28;88511;-79
2022/06/04 07:40:22;;;;;;;2.40;1.60;;;39.10;42.30;;;;;;4880057;28;87070;-78
2022/06/04 07:42:47;;;;;;;4.15;2.00;;;38.20;39.90;;;;;;4881385;28;87234;-77
2022/06/04 07:45:13;;;;;;;2.45;1.83;;;37.80;41.40;;;;;;4877209;28;87238;-81
2022/06/04 07:47:41;;;;;;;2.22;1.92;;;37.70;42.20;;;;;;4871210;28;88542;-76
2022/06/04 07:50:08;;;;;;;2.50;1.70;;;39.20;42.20;;;;;;4873355;28;87099;-76
2022/06/04 07:52:34;;;;;;;2.50;1.75;;;42.00;37.80;;;;;;4874846;28;86551;-76
2022/06/04 07:55:00;;;;;;;3.25;2.70;;;41.90;37.40;;;;;;4876828;28;86313;-75
2022/06/04 07:57:26;;;;;;;5.03;1.90;;;41.10;37.00;;;;;;4875487;28;88073;-76
2022/06/04 07:59:52;;;;;;;5.60;2.70;;;40.90;37.50;;;;;;4876255;28;87632;-76
2022/06/04 08:02:21;;;;;;;2.75;2.45;;;41.70;38.20;;;;;;4873397;28;87915;-76
2022/06/04 08:04:47;;;;;;;3.05;2.78;;;43.90;36.10;;;;;;4875273;28;88153;-76
2022/06/04 08:07:13;;;;;;;2.53;1.77;;;45.20;36.00;;;;;;4873618;28;87076;-76
2022/06/04 08:09:39;;;;;;;3.58;3.25;;;45.80;34.40;;;;;;4881321;28;88443;-76
2022/06/04 08:12:05;;;;;;;2.60;2.38;;;46.60;34.00;;;;;;4876709;28;87467;-75
2022/06/04 08:14:31;;;;;;;3.67;3.33;;;47.00;33.70;;;;;;4877810;28;86982;-76
2022/06/04 08:16:59;;;;;;;3.92;3.30;;;47.30;32.40;;;;;;4872199;28;87496;-76
2022/06/04 08:19:28;;;;;;;3.47;3.17;;;46.50;32.50;;;;;;4874614;28;87529;-79
2022/06/04 08:21:55;;;;;;;3.65;3.30;;;45.10;33.80;;;;;;4877394;28;89036;-77
2022/06/04 08:24:22;;;;;;;3.33;2.75;;;44.40;34.10;;;;;;4870571;28;87205;-75
2022/06/04 08:26:53;;;;;;;4.18;3.50;;;45.70;33.20;;;;;;4880479;28;87947;-76
2022/06/04 08:29:20;;;;;;;3.55;3.20;;;47.20;32.70;;;;;;4876990;28;88401;-75
2022/06/04 08:31:46;;;;;;;4.28;3.88;;;48.10;32.20;;;;;;4878902;28;87104;-79
2022/06/04 08:34:12;;;;;;;4.13;3.60;;;46.80;30.80;;;;;;4876544;28;88062;-76
2022/06/04 08:36:38;;;;;;;4.65;4.00;;;46.20;32.00;;;;;;4873207;28;87626;-77
2022/06/04 08:39:04;;;;;;;3.35;3.05;;;45.70;30.90;;;;;;4883462;28;86987;-77
2022/06/04 08:41:44;;;;;;;4.68;4.28;;;46.60;31.10;;;;;;4881975;28;86798;-77
2022/06/04 08:44:19;;;;;;;3.70;3.38;;;48.50;29.90;;;;;;4879338;28;86415;-76
2022/06/04 08:46:52;;;;;;;4.85;3.42;;;46.10;31.30;;;;;;4878465;28;87251;-79
2022/06/04 08:49:42;;;;;;;4.22;3.70;;;45.10;32.10;;;;;;4879213;28;88477;-77
2022/06/04 08:52:22;;;;;;;5.63;3.95;;;46.30;32.50;;;;;;4879520;28;88131;-75
2022/06/04 08:57:47;;;;;;;5.00;4.28;;;46.00;31.80;;;;;;4876259;28;87402;-79
2022/06/04 09:00:38;;;;;;;3.90;3.33;;;46.70;30.70;;;;;;4874116;28;87232;-78
2022/06/04 09:03:09;;;;;;;5.57;4.93;;;47.70;30.40;;;;;;4875224;28;87031;-77
2022/06/04 09:05:47;;;;;;;3.72;3.35;;;47.10;30.60;;;;;;4881371;28;87253;-77
2022/06/04 09:08:27;;;;;;;6.47;4.15;;;47.60;31.40;;;;;;4882054;28;87097;-77
2022/06/04 09:10:57;;;;;;;3.83;3.42;;;48.20;30.40;;;;;;4878208;28;88378;-78
2022/06/04 09:13:41;;;;;;;3.25;2.95;;;48.40;29.90;;;;;;4883016;28;89860;-78
2022/06/04 09:16:32;;;;;;;5.35;4.63;;;46.70;30.10;;;;;;4881051;28;86974;-77
2022/06/04 09:19:09;;;;;;;3.58;3.22;;;48.90;30.10;;;;;;4879479;28;88661;-78
2022/06/04 09:21:37;;;;;;;4.15;3.53;;;50.20;29.10;;;;;;4878904;28;89303;-76
2022/06/04 09:24:04;;;;;;;9.55;3.67;;;50.30;29.20;;;;;;4874031;28;87522;-76
2022/06/04 09:26:56;;;;;;;6.18;4.28;;;49.70;28.50;;;;;;4877981;28;87306;-77
2022/06/04 09:29:31;;;;;;;4.13;3.55;;;48.70;28.80;;;;;;4881941;28;88629;-79
2022/06/04 09:32:12;;;;;;;5.53;4.80;;;47.70;28.60;;;;;;4883901;28;88302;-78
2022/06/04 09:34:47;;;;;;;9.52;3.13;;;45.60;30.20;;;;;;4878532;28;87152;-77
2022/06/04 09:37:13;;;;;;;3.92;2.97;;;42.50;33.60;;;;;;4885017;28;86472;-78
2022/06/04 09:39:45;;;;;;;3.97;3.55;;;43.70;32.60;;;;;;4883750;28;87247;-78
2022/06/04 09:42:13;;;;;;;3.40;3.08;;;43.40;31.60;;;;;;4881456;28;87146;-79
2022/06/04 09:44:50;;;;;;;5.88;3.35;;;44.00;30.90;;;;;;4880352;28;88147;-78
2022/06/04 09:47:21;;;;;;;4.72;3.28;;;42.40;31.60;;;;;;4881432;28;87083;-78
2022/06/04 09:49:55;;;;;;;5.07;2.90;;;42.20;33.30;;;;;;4882507;28;87054;-77
2022/06/04 09:52:40;;;;;;;4.57;2.42;;;42.60;32.40;;;;;;4874833;28;88310;-78
2022/06/04 09:55:22;;;;;;;6.53;3.05;;;44.50;32.10;;;;;;4876564;28;87285;-76
2022/06/04 09:58:00;;;;;;;4.15;3.63;;;46.00;30.70;;;;;;4880979;28;87056;-78
2022/06/04 10:00:30;;;;;;;3.80;3.15;;;46.20;30.40;;;;;;4881493;28;88266;-80
2022/06/04 10:02:59;;;;;;;3.55;2.95;;;45.50;30.90;;;;;;4888637;28;88132;-78
2022/06/04 10:05:28;;;;;;;5.53;3.13;;;46.30;30.00;;;;;;4885008;28;87420;-79
2022/06/04 10:07:55;;;;;;;4.13;2.97;;;46.00;32.10;;;;;;4886198;28;87245;-76
2022/06/04 10:10:37;;;;;;;3.17;2.45;;;44.00;34.70;;;;;;4879030;28;88439;-77
2022/06/04 10:13:42;;;;;;;3.88;3.45;;;41.50;37.10;;;;;;4878383;28;87175;-76
2022/06/04 10:16:47;;;;;;;2.70;2.47;;;39.00;39.30;;;;;;4877310;28;86943;-77
2022/06/04 10:19:12;;;;;;;2.83;2.15;;;36.40;42.80;;;;;;4879701;28;88468;-78
2022/06/04 10:21:41;;;;;;;1.83;1.52;;;34.70;46.40;;;;;;4880339;28;87702;-79
2022/06/04 10:24:28;;;;;;;2.25;1.27;;;33.40;47.20;;;;;;4878756;28;88419;-80
2022/06/04 10:27:03;;;;;;;;;;;32.00;48.60;;;;;;4883483;28;87341;-80
2022/06/04 10:29:54;;;;;;;4.43;1.10;;;31.20;52.20;;;;;;4888521;28;86402;-77
2022/06/04 10:32:38;;;;;;;2.55;1.25;;;30.10;53.10;;;;;;4878002;28;88448;-79
2022/06/04 10:35:07;;;;;;;1.88;0.90;;;29.40;54.50;;;;;;4874567;28;87156;-78
2022/06/04 10:37:47;;;;;;;2.28;1.30;;;29.50;54.50;;;;;;4877335;28;87858;-77
2022/06/04 10:40:42;;;;;;;1.65;0.90;;;29.60;54.70;;;;;;4880920;28;87134;-78
2022/06/04 10:43:28;;;;;;;1.77;0.73;;;29.10;55.20;;;;;;4877396;28;87169;-80
2022/06/04 10:46:17;;;;;;;1.92;0.73;;;28.60;56.60;;;;;;4874557;28;87533;-78
2022/06/04 10:49:00;;;;;;;2.20;0.73;;;28.50;57.00;;;;;;4872088;28;88883;-78
2022/06/04 10:51:47;;;;;;;2.72;0.70;;;28.80;57.10;;;;;;4881043;28;86978;-77
2022/06/04 10:54:31;;;;;;;1.42;0.50;;;28.80;55.60;;;;;;4880697;28;87009;-79
2022/06/04 10:57:05;;;;;;;1.42;0.60;;;28.90;56.00;;;;;;4876931;28;87269;-78
2022/06/04 11:00:10;;;;;;;1.70;0.60;;;29.00;56.80;;;;;;4879335;28;87067;-80
2022/06/04 11:02:47;;;;;;;1.60;0.73;;;28.50;55.80;;;;;;4875784;28;87230;-77
2022/06/04 11:05:20;;;;;;;1.27;0.63;;;28.20;58.00;;;;;;4879844;28;88215;-77
2022/06/04 11:08:03;;;;;;;2.35;0.60;;;28.40;57.30;;;;;;4874907;28;87324;-79
2022/06/04 11:10:40;;;;;;;2.72;0.63;;;28.50;56.30;;;;;;4881044;28;87072;-78
2022/06/04 11:13:09;;;;;;;2.75;0.68;;;28.20;57.40;;;;;;4882422;28;87388;-79
2022/06/04 11:15:50;;;;;;;3.92;0.75;;;28.20;59.20;;;;;;4883437;28;86741;-78
2022/06/04 11:18:27;;;;;;;2.97;0.77;;;28.00;57.60;;;;;;4895772;28;87007;-78
2022/06/04 11:21:15;;;;;;;3.22;1.13;;;27.90;59.20;;;;;;4876549;28;86790;-78
2022/06/04 11:24:07;;;;;;;7.20;1.13;;;28.20;60.30;;;;;;4879142;28;86325;-78
2022/06/04 11:27:02;;;;;;;3.65;0.80;;;28.20;58.50;;;;;;4875864;28;88370;-79
2022/06/04 11:29:28;;;;;;;2.40;0.60;;;28.20;59.10;;;;;;4877091;28;87276;-79
2022/06/04 11:32:21;;;;;;;2.95;0.60;;;28.30;56.40;;;;;;4879713;28;87896;-78
2022/06/04 11:35:26;;;;;;;2.60;0.80;;;28.40;56.50;;;;;;4878712;28;87666;-78
2022/06/04 11:38:31;;;;;;;2.28;0.57;;;28.20;58.20;;;;;;4852670;28;87196;-79
2022/06/04 11:41:19;;;;;;;4.10;0.40;;;28.40;59.20;;;;;;4845582;28;86916;-80
2022/06/04 11:43:54;;;;;;;2.15;0.55;;;28.40;57.30;;;;;;4875748;28;87212;-76
2022/06/04 11:46:54;;;;;;;3.17;0.60;;;28.20;59.60;;;;;;4879603;28;86852;-78
2022/06/04 11:49:51;;;;;;;3.28;0.50;;;27.90;58.90;;;;;;4883447;28;88342;-80
2022/06/04 11:52:30;;;;;;;5.00;0.70;;;27.90;58.20;;;;;;4876692;28;88136;-80
2022/06/04 11:55:12;;;;;;;2.72;0.52;;;27.90;59.20;;;;;;4877830;28;87577;-79
2022/06/04 11:57:47;;;;;;;2.60;0.85;;;27.80;56.60;;;;;;4877998;28;88057;-81
2022/06/04 12:00:23;;;;;;;2.70;0.65;;;27.90;61.20;;;;;;4878251;28;89467;-79
2022/06/04 12:03:02;;;;;;;2.95;0.50;;;28.10;60.50;;;;;;4879241;28;89423;-80
2022/06/04 12:05:52;;;;;;;3.28;0.70;;;28.20;61.00;;;;;;4880515;28;87135;-80
2022/06/04 12:08:23;;;;;;;5.53;2.00;;;28.30;58.40;;;;;;4882371;28;86795;-80
2022/06/04 12:11:28;;;;;;;4.40;0.90;;;28.10;62.60;;;;;;4884701;28;87808;-80
2022/06/04 12:14:20;;;;;;;7.07;2.15;;;28.20;62.00;;;;;;4883733;28;87664;-80
2022/06/04 12:17:10;;;;;;;5.50;2.10;;;28.30;62.30;;;;;;4885378;28;88055;-81
2022/06/04 12:25:40;;;;;;;5.88;0.70;;;28.40;59.80;;;;;;4881530;28;87916;-83
2022/06/04 12:28:24;;;;;;;6.38;0.98;;;28.20;61.70;;;;;;4883815;28;88250;-81
2022/06/04 12:30:50;;;;;;;1.83;0.63;;;28.50;60.40;;;;;;4884505;28;87306;-81
2022/06/04 12:33:29;;;;;;;4.18;0.82;;;28.80;58.90;;;;;;4882439;28;87484;-82
2022/06/04 12:35:59;;;;;;;2.75;0.85;;;28.80;57.30;;;;;;4879393;28;87607;-80
2022/06/04 12:38:26;;;;;;;4.80;0.90;;;28.60;58.90;;;;;;4881236;28;87599;-79
2022/06/04 12:41:16;;;;;;;2.60;0.85;;;28.30;59.60;;;;;;4883291;28;87165;-80
2022/06/04 12:43:46;;;;;;;3.08;0.77;;;28.30;58.50;;;;;;4878325;28;87117;-81
2022/06/04 12:46:35;;;;;;;2.50;0.73;;;28.20;61.90;;;;;;4877403;28;86423;-80
2022/06/04 12:49:27;;;;;;;4.40;0.75;;;28.30;61.70;;;;;;4870193;28;86999;-80
2022/06/04 12:52:18;;;;;;;2.13;0.60;;;28.30;58.10;;;;;;4878965;28;87460;-79
2022/06/04 12:54:57;;;;;;;2.33;0.68;;;28.40;60.70;;;;;;4878918;28;88989;-79
2022/06/04 12:57:37;;;;;;;3.90;0.80;;;28.40;60.00;;;;;;4888341;28;87657;-80
2022/06/04 13:00:18;;;;;;;1.83;0.65;;;28.50;58.90;;;;;;4878538;28;87146;-79
2022/06/04 13:03:06;;;;;;;3.20;0.70;;;28.40;59.70;;;;;;4874833;28;87499;-80
2022/06/04 13:05:33;;;;;;;2.05;0.50;;;28.50;56.20;;;;;;4882086;28;87391;-80
2022/06/04 13:08:36;;;;;;;3.80;0.57;;;28.40;59.50;;;;;;4886811;28;88161;-79
2022/06/04 13:11:30;;;;;;;3.22;1.10;;;28.60;60.50;;;;;;4883004;28;87495;-78
2022/06/04 13:14:23;;;;;;;2.63;0.65;;;28.60;56.00;;;;;;4884018;28;86432;-79
2022/06/04 13:16:55;;;;;;;3.65;0.70;;;28.40;56.20;;;;;;4885909;28;87747;-80
2022/06/04 13:19:39;;;;;;;2.20;0.60;;;28.20;58.00;;;;;;4891409;28;87157;-79
2022/06/04 13:22:39;;;;;;;1.65;0.77;;;28.30;55.80;;;;;;4883984;28;88394;-81
2022/06/04 13:25:12;;;;;;;3.22;0.70;;;28.30;57.30;;;;;;4880942;28;87006;-79
2022/06/04 13:27:53;;;;;;;2.78;0.75;;;28.20;56.60;;;;;;4885008;28;87969;-80
2022/06/04 13:30:32;;;;;;;4.00;0.65;;;28.00;56.50;;;;;;4886444;28;87462;-79
2022/06/04 13:33:07;;;;;;;3.40;0.73;;;28.00;56.50;;;;;;4886101;28;86565;-80
2022/06/04 13:35:45;;;;;;;4.20;0.70;;;28.20;55.30;;;;;;4884994;28;87115;-81
2022/06/04 13:38:56;;;;;;;4.50;0.60;;;28.30;55.60;;;;;;4883336;28;86980;-79
2022/06/04 13:44:26;;;;;;;2.75;1.00;;;28.20;55.80;;;;;;4883002;28;87393;-79
2022/06/04 13:46:52;;;;;;;3.30;0.40;;;28.10;57.30;;;;;;4881853;28;86874;-79
2022/06/04 13:49:26;;;;;;;2.47;0.70;;;28.30;55.20;;;;;;4879349;28;88550;-79
2022/06/04 13:51:58;;;;;;;3.53;0.63;;;28.40;56.00;;;;;;4876917;28;87341;-79
2022/06/04 13:54:31;;;;;;;3.90;0.68;;;28.50;55.60;;;;;;4880571;28;87046;-79
2022/06/04 13:57:01;;;;;;;2.92;0.75;;;28.40;55.70;;;;;;4877372;28;87720;-78
2022/06/04 13:59:34;;;;;;;5.57;0.52;;;28.40;56.60;;;;;;4880672;28;87262;-77
2022/06/04 14:02:04;;;;;;;5.13;0.88;;;28.50;57.30;;;;;;4882001;28;87058;-78
2022/06/04 14:07:16;;;;;;;1.98;0.60;;;28.20;54.90;;;;;;4877952;28;86616;-77
2022/06/04 14:09:55;;;;;;;2.47;1.05;;;28.10;58.00;;;;;;4878809;28;87818;-78
2022/06/04 14:12:34;;;;;;;2.03;0.50;;;28.20;54.60;;;;;;4877524;28;86937;-78
2022/06/04 14:15:22;;;;;;;3.03;0.43;;;28.20;55.10;;;;;;4879467;28;88032;-77
2022/06/04 14:17:51;;;;;;;3.85;0.77;;;28.10;55.10;;;;;;4878973;28;87117;-77
2022/06/04 14:20:32;;;;;;;1.95;0.85;;;28.10;55.10;;;;;;4878400;28;87732;-77
2022/06/04 14:23:07;;;;;;;3.30;0.80;;;28.10;56.00;;;;;;4879362;28;87309;-79
2022/06/04 14:25:51;;;;;;;4.70;0.60;;;28.10;55.00;;;;;;4879651;28;87525;-77
2022/06/04 14:28:20;;;;;;;3.08;0.73;;;28.20;56.80;;;;;;4876499;28;86975;-77
2022/06/04 14:31:12;;;;;;;2.30;0.80;;;28.30;54.90;;;;;;4874847;28;87129;-77
2022/06/04 14:33:39;;;;;;;1.83;0.73;;;28.40;57.50;;;;;;4875805;28;87846;-78
2022/06/04 14:36:21;;;;;;;6.40;0.45;;;28.30;54.40;;;;;;4881250;28;87863;-78
2022/06/04 14:38:48;;;;;;;3.08;0.57;;;28.40;55.60;;;;;;4895793;28;86853;-78
2022/06/04 14:41:19;;;;;;;2.97;0.50;;;28.50;55.30;;;;;;4890004;28;88259;-77
2022/06/04 14:44:07;;;;;;;3.92;0.93;;;28.40;54.50;;;;;;4877200;28;87384;-78
2022/06/04 14:46:51;;;;;;;4.38;0.57;;;28.30;54.20;;;;;;4877230;28;87166;-78
2022/06/04 14:49:36;;;;;;;4.20;0.52;;;28.40;55.40;;;;;;4878678;28;87650;-78
2022/06/04 14:52:17;;;;;;;2.65;0.77;;;28.50;53.50;;;;;;4882114;28;87696;-78
2022/06/04 14:54:44;;;;;;;3.13;0.98;;;28.30;51.30;;;;;;4884342;28;86921;-78
2022/06/04 14:57:10;;;;;;;3.33;1.02;;;28.20;53.40;;;;;;4883385;28;87178;-79
2022/06/04 15:00:22;;;;;;;3.67;1.02;;;28.40;52.30;;;;;;4881694;28;85700;-78
2022/06/04 15:03:12;;;;;;;5.40;1.10;;;28.50;53.80;;;;;;4862444;28;87758;-78
2022/06/04 15:05:59;;;;;;;3.70;0.75;;;28.60;52.90;;;;;;4877972;28;87870;-79
2022/06/04 15:08:43;;;;;;;5.30;1.08;;;28.70;53.20;;;;;;4879780;28;87609;-79
2022/06/04 15:11:49;;;;;;;2.90;0.95;;;28.80;53.50;;;;;;4888552;28;87144;-77
2022/06/04 15:14:37;;;;;;;5.90;0.82;;;28.70;52.40;;;;;;4883928;28;87391;-77
2022/06/04 15:17:41;;;;;;;2.22;0.70;;;28.70;50.20;;;;;;4880999;28;88388;-76
2022/06/04 15:20:22;;;;;;;3.17;0.90;;;28.60;52.20;;;;;;4872230;28;87517;-78
2022/06/04 15:23:02;;;;;;;3.15;0.68;;;28.60;50.80;;;;;;4874483;28;87103;-71
2022/06/04 15:25:34;;;;;;;4.85;1.05;;;28.50;50.80;;;;;;4880231;28;87452;-72
2022/06/04 15:34:01;;;;;;;6.20;1.13;;;28.00;51.60;;;;;;4880503;28;88946;-74
2022/06/04 15:36:49;;;;;;;2.28;0.60;;;27.90;53.10;;;;;;4877642;28;89804;-73
2022/06/04 15:39:14;;;;;;;5.85;0.85;;;28.00;55.10;;;;;;4874335;28;87848;-74
2022/06/04 15:42:16;;;;;;;5.68;0.93;;;28.20;54.10;;;;;;4877657;28;87093;-74
2022/06/04 15:45:01;;;;;;;5.20;1.35;;;28.30;54.60;;;;;;4878087;28;87819;-73
2022/06/04 15:48:09;;;;;;;8.82;0.80;;;28.20;54.70;;;;;;4877299;28;87026;-74
2022/06/04 15:56:23;;;;;;;5.68;1.05;;;28.20;54.20;;;;;;4873091;28;87201;-74
2022/06/04 15:58:51;;;;;;;4.50;0.93;;;28.20;55.10;;;;;;4870054;28;87553;-79
2022/06/04 16:01:32;;;;;;;7.28;0.93;;;28.00;52.30;;;;;;4874974;28;90221;-79
2022/06/04 16:04:38;;;;;;;4.03;0.90;;;28.10;53.90;;;;;;4877335;28;89136;-76
2022/06/04 16:07:03;;;;;;;6.57;0.90;;;28.10;53.00;;;;;;4874857;28;87205;-75
2022/06/04 16:09:30;;;;;;;9.52;0.88;;;28.20;54.60;;;;;;4881137;28;88417;-75
2022/06/04 16:12:20;;;;;;;8.05;0.70;;;28.30;53.70;;;;;;4880276;28;87177;-74
2022/06/04 16:14:58;;;;;;;5.63;1.15;;;28.40;53.20;;;;;;4874691;28;88536;-75
2022/06/04 16:17:28;;;;;;;2.70;0.57;;;28.40;50.50;;;;;;4879941;28;88215;-75
2022/06/04 16:20:29;;;;;;;4.72;0.80;;;28.40;51.80;;;;;;4876174;28;87045;-76
2022/06/04 16:23:30;;;;;;;6.13;0.77;;;28.40;51.30;;;;;;4879045;28;86581;-77
2022/06/04 16:26:20;;;;;;;4.18;0.70;;;28.30;49.70;;;;;;4852981;28;87420;-77
2022/06/04 16:28:54;;;;;;;5.72;0.70;;;28.40;52.20;;;;;;4879323;28;87525;-77
2022/06/04 16:31:27;;;;;;;5.82;0.85;;;28.40;51.50;;;;;;4881549;28;88522;-77
2022/06/04 16:33:58;;;;;;;7.95;0.70;;;28.30;51.10;;;;;;4887508;28;88061;-76
2022/06/04 16:36:44;;;;;;;4.47;0.77;;;28.20;51.80;;;;;;4886176;28;86939;-76
2022/06/04 16:39:11;;;;;;;5.45;0.90;;;28.20;52.40;;;;;;4883253;28;87029;-75
2022/06/04 16:41:54;;;;;;;7.13;0.50;;;28.20;51.60;;;;;;4889640;28;87337;-77
2022/06/04 16:44:43;;;;;;;6.10;1.05;;;28.10;52.40;;;;;;4878839;28;88947;-76
2022/06/04 16:47:28;;;;;;;5.95;0.73;;;28.10;53.40;;;;;;4884382;28;87268;-76
2022/06/04 16:49:58;;;;;;;8.48;1.08;;;28.10;52.60;;;;;;4888184;28;86922;-77
2022/06/04 16:52:30;;;;;;;4.13;1.00;;;28.00;52.20;;;;;;4875844;28;87577;-77